<?xml version="1.0" encoding="UTF-8" standalone="no" ?><gpx xmlns="http://www.topografix.com/GPX/1/1" xmlns:gpxx="http://www.garmin.com/xmlschemas/GpxExtensions/v3" xmlns:wptx1="http://www.garmin.com/xmlschemas/WaypointExtension/v1" xmlns:gpxtpx="http://www.garmin.com/xmlschemas/TrackPointExtension/v1" creator="Dakota 20" version="1.1" xmlns:xsi="http://www.w3.org/2001/XMLSchema-instance" xsi:schemaLocation="http://www.topografix.com/GPX/1/1 http://www.topografix.com/GPX/1/1/gpx.xsd http://www.garmin.com/xmlschemas/GpxExtensions/v3 http://www8.garmin.com/xmlschemas/GpxExtensionsv3.xsd http://www.garmin.com/xmlschemas/WaypointExtension/v1 http://www8.garmin.com/xmlschemas/WaypointExtensionv1.xsd http://www.garmin.com/xmlschemas/TrackPointExtension/v1 http://www.garmin.com/xmlschemas/TrackPointExtensionv1.xsd"><metadata><link href="http://www.garmin.com"><text>Garmin International</text></link><time>2012-03-04T09:00:51Z</time></metadata><trk><name>Day 03-MAR-12 16:38:00</name><extensions><gpxx:TrackExtension><gpxx:DisplayColor>Green</gpxx:DisplayColor></gpxx:TrackExtension></extensions><trkseg><trkpt lat="40.9489439707" lon="-5.6487268209"><ele>650.47</ele><time>2012-03-03T15:38:00Z</time></trkpt><trkpt lat="40.9491047356" lon="-5.6492858939"><ele>650.95</ele><time>2012-03-03T15:38:06Z</time></trkpt><trkpt lat="40.9499907866" lon="-5.6503551733"><ele>649.51</ele><time>2012-03-03T15:38:17Z</time></trkpt><trkpt lat="40.9500798024" lon="-5.6504386570"><ele>652.39</ele><time>2012-03-03T15:38:18Z</time></trkpt><trkpt lat="40.9508118778" lon="-5.6511066947"><ele>649.99</ele><time>2012-03-03T15:38:26Z</time></trkpt><trkpt lat="40.9512220882" lon="-5.6512743328"><ele>649.99</ele><time>2012-03-03T15:38:30Z</time></trkpt><trkpt lat="40.9515802469" lon="-5.6517359242"><ele>649.51</ele><time>2012-03-03T15:38:35Z</time></trkpt><trkpt lat="40.9516975936" lon="-5.6525952369"><ele>649.03</ele><time>2012-03-03T15:38:40Z</time></trkpt><trkpt lat="40.9519948997" lon="-5.6542743836"><ele>649.51</ele><time>2012-03-03T15:38:49Z</time></trkpt><trkpt lat="40.9522445127" lon="-5.6571176089"><ele>649.03</ele><time>2012-03-03T15:39:04Z</time></trkpt><trkpt lat="40.9524840675" lon="-5.6597341876"><ele>647.59</ele><time>2012-03-03T15:39:18Z</time></trkpt><trkpt lat="40.9525953792" lon="-5.6612907909"><ele>653.35</ele><time>2012-03-03T15:39:29Z</time></trkpt><trkpt lat="40.9526637755" lon="-5.6614898611"><ele>662.01</ele><time>2012-03-03T15:39:31Z</time></trkpt><trkpt lat="40.9527127258" lon="-5.6615701597"><ele>667.29</ele><time>2012-03-03T15:39:32Z</time></trkpt><trkpt lat="40.9527723212" lon="-5.6616316829"><ele>671.14</ele><time>2012-03-03T15:39:33Z</time></trkpt><trkpt lat="40.9528444055" lon="-5.6616660487"><ele>674.50</ele><time>2012-03-03T15:39:34Z</time></trkpt><trkpt lat="40.9529207647" lon="-5.6616799626"><ele>678.35</ele><time>2012-03-03T15:39:35Z</time></trkpt><trkpt lat="40.9530019853" lon="-5.6616873387"><ele>681.71</ele><time>2012-03-03T15:39:36Z</time></trkpt><trkpt lat="40.9532075934" lon="-5.6616984867"><ele>688.92</ele><time>2012-03-03T15:39:38Z</time></trkpt><trkpt lat="40.9533254430" lon="-5.6616999116"><ele>691.81</ele><time>2012-03-03T15:39:39Z</time></trkpt><trkpt lat="40.9535592981" lon="-5.6617056113"><ele>697.57</ele><time>2012-03-03T15:39:41Z</time></trkpt><trkpt lat="40.9536785726" lon="-5.6617102213"><ele>700.46</ele><time>2012-03-03T15:39:42Z</time></trkpt><trkpt lat="40.9539248329" lon="-5.6617194414"><ele>705.75</ele><time>2012-03-03T15:39:44Z</time></trkpt><trkpt lat="40.9541873541" lon="-5.6617294159"><ele>710.55</ele><time>2012-03-03T15:39:46Z</time></trkpt><trkpt lat="40.9544528089" lon="-5.6617391389"><ele>714.40</ele><time>2012-03-03T15:39:48Z</time></trkpt><trkpt lat="40.9547263943" lon="-5.6617410667"><ele>718.24</ele><time>2012-03-03T15:39:50Z</time></trkpt><trkpt lat="40.9550240356" lon="-5.6617140770"><ele>722.57</ele><time>2012-03-03T15:39:52Z</time></trkpt><trkpt lat="40.9556374233" lon="-5.6615902763"><ele>726.41</ele><time>2012-03-03T15:39:56Z</time></trkpt><trkpt lat="40.9560923092" lon="-5.6614532322"><ele>729.78</ele><time>2012-03-03T15:39:59Z</time></trkpt><trkpt lat="40.9565554932" lon="-5.6612715963"><ele>734.58</ele><time>2012-03-03T15:40:02Z</time></trkpt><trkpt lat="40.9568710718" lon="-5.6611367315"><ele>737.95</ele><time>2012-03-03T15:40:04Z</time></trkpt><trkpt lat="40.9573078528" lon="-5.6609641481"><ele>742.76</ele><time>2012-03-03T15:40:07Z</time></trkpt><trkpt lat="40.9574363474" lon="-5.6609149463"><ele>742.76</ele><time>2012-03-03T15:40:08Z</time></trkpt><trkpt lat="40.9575557057" lon="-5.6608720310"><ele>747.08</ele><time>2012-03-03T15:40:09Z</time></trkpt><trkpt lat="40.9576665144" lon="-5.6608275231"><ele>747.08</ele><time>2012-03-03T15:40:10Z</time></trkpt><trkpt lat="40.9578628186" lon="-5.6606988609"><ele>749.49</ele><time>2012-03-03T15:40:12Z</time></trkpt><trkpt lat="40.9582772199" lon="-5.6606635731"><ele>753.81</ele><time>2012-03-03T15:40:16Z</time></trkpt><trkpt lat="40.9584996756" lon="-5.6605955958"><ele>756.21</ele><time>2012-03-03T15:40:18Z</time></trkpt><trkpt lat="40.9588342812" lon="-5.6604009680"><ele>760.54</ele><time>2012-03-03T15:40:21Z</time></trkpt><trkpt lat="40.9590764344" lon="-5.6602620799"><ele>763.90</ele><time>2012-03-03T15:40:23Z</time></trkpt><trkpt lat="40.9594532009" lon="-5.6600416359"><ele>768.71</ele><time>2012-03-03T15:40:26Z</time></trkpt><trkpt lat="40.9599738847" lon="-5.6597447488"><ele>770.63</ele><time>2012-03-03T15:40:30Z</time></trkpt><trkpt lat="40.9604913834" lon="-5.6595121510"><ele>774.00</ele><time>2012-03-03T15:40:34Z</time></trkpt><trkpt lat="40.9609806351" lon="-5.6593246479"><ele>776.88</ele><time>2012-03-03T15:40:38Z</time></trkpt><trkpt lat="40.9616900794" lon="-5.6590671558"><ele>780.73</ele><time>2012-03-03T15:40:44Z</time></trkpt><trkpt lat="40.9622311313" lon="-5.6588736176"><ele>783.61</ele><time>2012-03-03T15:40:49Z</time></trkpt><trkpt lat="40.9628011845" lon="-5.6586833484"><ele>786.98</ele><time>2012-03-03T15:40:55Z</time></trkpt><trkpt lat="40.9632779472" lon="-5.6585470587"><ele>788.90</ele><time>2012-03-03T15:41:01Z</time></trkpt><trkpt lat="40.9640685283" lon="-5.6583368406"><ele>790.82</ele><time>2012-03-03T15:41:11Z</time></trkpt><trkpt lat="40.9643095080" lon="-5.6582739763"><ele>792.74</ele><time>2012-03-03T15:41:21Z</time></trkpt><trkpt lat="40.9643095080" lon="-5.6582739763"><ele>795.15</ele><time>2012-03-03T15:41:46Z</time></trkpt><trkpt lat="40.9643093403" lon="-5.6582712941"><ele>795.15</ele><time>2012-03-03T15:42:09Z</time></trkpt><trkpt lat="40.9644704405" lon="-5.6582189072"><ele>795.63</ele><time>2012-03-03T15:42:21Z</time></trkpt><trkpt lat="40.9645609651" lon="-5.6582180690"><ele>795.63</ele><time>2012-03-03T15:42:23Z</time></trkpt><trkpt lat="40.9655106347" lon="-5.6579053402"><ele>794.19</ele><time>2012-03-03T15:42:34Z</time></trkpt><trkpt lat="40.9663291276" lon="-5.6576926075"><ele>791.30</ele><time>2012-03-03T15:42:43Z</time></trkpt><trkpt lat="40.9670632984" lon="-5.6576526258"><ele>788.42</ele><time>2012-03-03T15:42:53Z</time></trkpt><trkpt lat="40.9673018474" lon="-5.6575369556"><ele>788.42</ele><time>2012-03-03T15:43:05Z</time></trkpt><trkpt lat="40.9673018474" lon="-5.6575369556"><ele>788.90</ele><time>2012-03-03T15:43:35Z</time></trkpt><trkpt lat="40.9672874305" lon="-5.6575633585"><ele>789.38</ele><time>2012-03-03T15:43:59Z</time></trkpt><trkpt lat="40.9673351236" lon="-5.6577087846"><ele>789.38</ele><time>2012-03-03T15:44:03Z</time></trkpt><trkpt lat="40.9679800272" lon="-5.6581360102"><ele>787.94</ele><time>2012-03-03T15:44:17Z</time></trkpt><trkpt lat="40.9681003913" lon="-5.6582469027"><ele>787.94</ele><time>2012-03-03T15:44:20Z</time></trkpt><trkpt lat="40.9685078356" lon="-5.6584890559"><ele>787.94</ele><time>2012-03-03T15:44:29Z</time></trkpt><trkpt lat="40.9686269425" lon="-5.6590140145"><ele>789.38</ele><time>2012-03-03T15:44:36Z</time></trkpt><trkpt lat="40.9687497374" lon="-5.6592312735"><ele>789.86</ele><time>2012-03-03T15:44:40Z</time></trkpt><trkpt lat="40.9688239172" lon="-5.6593338680"><ele>789.86</ele><time>2012-03-03T15:44:42Z</time></trkpt><trkpt lat="40.9691257495" lon="-5.6592804752"><ele>791.30</ele><time>2012-03-03T15:44:49Z</time></trkpt><trkpt lat="40.9695148375" lon="-5.6590043753"><ele>792.74</ele><time>2012-03-03T15:44:55Z</time></trkpt><trkpt lat="40.9698622674" lon="-5.6588879507"><ele>794.19</ele><time>2012-03-03T15:45:05Z</time></trkpt><trkpt lat="40.9700931888" lon="-5.6587763038"><ele>794.67</ele><time>2012-03-03T15:45:10Z</time></trkpt><trkpt lat="40.9707342368" lon="-5.6584204081"><ele>796.59</ele><time>2012-03-03T15:45:18Z</time></trkpt><trkpt lat="40.9716745187" lon="-5.6579047535"><ele>798.99</ele><time>2012-03-03T15:45:29Z</time></trkpt><trkpt lat="40.9718983993" lon="-5.6577990577"><ele>798.99</ele><time>2012-03-03T15:45:32Z</time></trkpt><trkpt lat="40.9721502755" lon="-5.6576693058"><ele>798.99</ele><time>2012-03-03T15:45:40Z</time></trkpt><trkpt lat="40.9723663609" lon="-5.6581253652"><ele>801.40</ele><time>2012-03-03T15:45:48Z</time></trkpt><trkpt lat="40.9727001283" lon="-5.6590738613"><ele>804.76</ele><time>2012-03-03T15:45:59Z</time></trkpt><trkpt lat="40.9729623143" lon="-5.6601139717"><ele>807.16</ele><time>2012-03-03T15:46:10Z</time></trkpt><trkpt lat="40.9731219895" lon="-5.6610489730"><ele>804.28</ele><time>2012-03-03T15:46:22Z</time></trkpt><trkpt lat="40.9731484763" lon="-5.6612751167"><ele>803.32</ele><time>2012-03-03T15:46:30Z</time></trkpt><trkpt lat="40.9731484763" lon="-5.6612751167"><ele>803.32</ele><time>2012-03-03T15:46:32Z</time></trkpt><trkpt lat="40.9731565230" lon="-5.6613365561"><ele>803.80</ele><time>2012-03-03T15:46:35Z</time></trkpt><trkpt lat="40.9733075649" lon="-5.6622554641"><ele>801.88</ele><time>2012-03-03T15:46:46Z</time></trkpt><trkpt lat="40.9734415077" lon="-5.6627340708"><ele>800.92</ele><time>2012-03-03T15:46:55Z</time></trkpt><trkpt lat="40.9734650608" lon="-5.6627515890"><ele>802.36</ele><time>2012-03-03T15:47:06Z</time></trkpt><trkpt lat="40.9734639712" lon="-5.6627181452"><ele>803.32</ele><time>2012-03-03T15:47:25Z</time></trkpt><trkpt lat="40.9734581038" lon="-5.6627094280"><ele>801.40</ele><time>2012-03-03T15:47:31Z</time></trkpt></trkseg><trkseg><trkpt lat="40.9736482054" lon="-5.6624022312"><ele>818.22</ele><time>2012-03-03T18:14:26Z</time></trkpt><trkpt lat="40.9736435954" lon="-5.6624026503"><ele>818.22</ele><time>2012-03-03T18:14:27Z</time></trkpt><trkpt lat="40.9736017697" lon="-5.6625522673"><ele>818.22</ele><time>2012-03-03T18:14:58Z</time></trkpt><trkpt lat="40.9735697508" lon="-5.6625117827"><ele>818.22</ele><time>2012-03-03T18:15:27Z</time></trkpt><trkpt lat="40.9735508915" lon="-5.6625041552"><ele>821.10</ele><time>2012-03-03T18:15:46Z</time></trkpt><trkpt lat="40.9735490475" lon="-5.6625034008"><ele>821.58</ele><time>2012-03-03T18:15:47Z</time></trkpt><trkpt lat="40.9735176153" lon="-5.6624851283"><ele>824.95</ele><time>2012-03-03T18:15:56Z</time></trkpt><trkpt lat="40.9734982532" lon="-5.6624712143"><ele>827.35</ele><time>2012-03-03T18:16:02Z</time></trkpt><trkpt lat="40.9734954033" lon="-5.6624776684"><ele>830.24</ele><time>2012-03-03T18:16:10Z</time></trkpt><trkpt lat="40.9734954033" lon="-5.6624776684"><ele>833.60</ele><time>2012-03-03T18:16:22Z</time></trkpt><trkpt lat="40.9734954033" lon="-5.6624776684"><ele>836.48</ele><time>2012-03-03T18:16:34Z</time></trkpt><trkpt lat="40.9735005163" lon="-5.6625111960"><ele>836.96</ele><time>2012-03-03T18:16:43Z</time></trkpt><trkpt lat="40.9735280089" lon="-5.6626642495"><ele>837.45</ele><time>2012-03-03T18:17:01Z</time></trkpt></trkseg><trkseg><trkpt lat="40.9733305313" lon="-5.6623394508"><ele>837.45</ele><time>2012-03-03T18:22:02Z</time></trkpt><trkpt lat="40.9734326228" lon="-5.6624184921"><ele>836.96</ele><time>2012-03-03T18:22:07Z</time></trkpt><trkpt lat="40.9731456265" lon="-5.6626283750"><ele>836.96</ele><time>2012-03-03T18:22:29Z</time></trkpt><trkpt lat="40.9729815088" lon="-5.6627493259"><ele>834.56</ele><time>2012-03-03T18:22:51Z</time></trkpt><trkpt lat="40.9729620628" lon="-5.6627614796"><ele>840.33</ele><time>2012-03-03T18:22:54Z</time></trkpt><trkpt lat="40.9729558602" lon="-5.6627706159"><ele>836.48</ele><time>2012-03-03T18:22:55Z</time></trkpt><trkpt lat="40.9729888849" lon="-5.6626808457"><ele>837.45</ele><time>2012-03-03T18:23:18Z</time></trkpt><trkpt lat="40.9729837719" lon="-5.6626935024"><ele>836.00</ele><time>2012-03-03T18:23:21Z</time></trkpt></trkseg><trkseg><trkpt lat="40.9732118435" lon="-5.6627852842"><ele>835.04</ele><time>2012-03-03T18:59:53Z</time></trkpt><trkpt lat="40.9733094927" lon="-5.6627738010"><ele>835.04</ele><time>2012-03-03T18:59:54Z</time></trkpt><trkpt lat="40.9734556731" lon="-5.6625241041"><ele>834.56</ele><time>2012-03-03T19:00:21Z</time></trkpt><trkpt lat="40.9734452795" lon="-5.6624670234"><ele>834.56</ele><time>2012-03-03T19:00:48Z</time></trkpt><trkpt lat="40.9734419268" lon="-5.6624868885"><ele>838.41</ele><time>2012-03-03T19:00:54Z</time></trkpt><trkpt lat="40.9734460339" lon="-5.6624915823"><ele>838.41</ele><time>2012-03-03T19:00:55Z</time></trkpt><trkpt lat="40.9734533262" lon="-5.6625007186"><ele>840.81</ele><time>2012-03-03T19:00:59Z</time></trkpt><trkpt lat="40.9734421782" lon="-5.6625017244"><ele>845.14</ele><time>2012-03-03T19:01:05Z</time></trkpt><trkpt lat="40.9734384064" lon="-5.6624774169"><ele>848.50</ele><time>2012-03-03T19:01:16Z</time></trkpt><trkpt lat="40.9734358080" lon="-5.6624633353"><ele>851.87</ele><time>2012-03-03T19:01:35Z</time></trkpt><trkpt lat="40.9734358080" lon="-5.6624633353"><ele>853.79</ele><time>2012-03-03T19:01:46Z</time></trkpt><trkpt lat="40.9734358080" lon="-5.6624628324"><ele>853.79</ele><time>2012-03-03T19:02:09Z</time></trkpt></trkseg></trk></gpx>